Time;durP1;ratioP1;P1;durP2;ratioP2;P2;SDS_P1;SDS_P2;PMS_P1;PMS_P2;Temp;Humidity;BMP_temperature;BMP_pressure;BME280_temperature;BME280_humidity;BME280_pressure;Samples;Min_cycle;Max_cycle;Signal;HPM_P1;HPM_P2
2023/05/06 00:00:39;;;;;;;9.35;8.35;;;10.90;99.90;;;;;;5146760;27;20125;-40
2023/05/06 00:03:05;;;;;;;10.38;9.38;;;10.90;99.90;;;;;;5144904;27;20046;-37
2023/05/06 00:05:31;;;;;;;10.05;8.73;;;10.80;99.90;;;;;;5149901;27;20037;-41
2023/05/06 00:07:56;;;;;;;10.40;9.40;;;10.70;99.90;;;;;;5153203;27;20516;-37
2023/05/06 00:10:22;;;;;;;10.40;9.40;;;10.70;99.90;;;;;;5147240;27;20031;-38
2023/05/06 00:12:48;;;;;;;9.48;8.48;;;10.70;99.90;;;;;;5146190;27;20146;-37
2023/05/06 00:15:14;;;;;;;10.82;9.75;;;10.60;99.90;;;;;;5147763;27;20390;-37
2023/05/06 00:17:39;;;;;;;8.82;7.88;;;10.60;99.90;;;;;;5148782;27;20496;-39
2023/05/06 00:20:06;;;;;;;10.35;9.15;;;10.60;99.90;;;;;;5141237;27;20073;-40
2023/05/06 00:22:32;;;;;;;10.50;8.73;;;10.60;99.90;;;;;;5147739;27;20501;-40
2023/05/06 00:24:58;;;;;;;10.38;8.13;;;10.60;99.90;;;;;;5148393;27;20034;-40
2023/05/06 00:27:24;;;;;;;9.48;8.57;;;10.60;99.90;;;;;;5145003;27;20038;-38
2023/05/06 00:29:49;;;;;;;11.40;8.32;;;10.50;99.90;;;;;;5146250;27;20030;-37
2023/05/06 00:32:15;;;;;;;9.18;8.20;;;10.50;99.90;;;;;;5144633;27;20038;-39
2023/05/06 00:34:43;;;;;;;10.57;8.95;;;10.50;99.90;;;;;;5152293;27;20033;-39
2023/05/06 00:37:09;;;;;;;10.60;9.57;;;10.50;99.90;;;;;;5148521;27;20030;-38
2023/05/06 00:39:35;;;;;;;10.43;9.02;;;10.50;99.90;;;;;;5150679;27;20403;-37
2023/05/06 00:42:02;;;;;;;10.07;8.65;;;10.50;99.90;;;;;;5144316;27;20038;-37
2023/05/06 00:44:29;;;;;;;9.73;8.82;;;10.40;99.90;;;;;;5145880;27;20041;-38
2023/05/06 00:46:55;;;;;;;9.52;8.63;;;10.40;99.90;;;;;;5146767;27;20034;-37
2023/05/06 00:49:22;;;;;;;9.43;8.52;;;10.40;99.90;;;;;;5148026;27;20034;-35
2023/05/06 00:51:50;;;;;;;9.98;8.98;;;10.30;99.90;;;;;;5145583;27;20068;-34
2023/05/06 00:54:16;;;;;;;10.70;8.63;;;10.30;99.90;;;;;;5162469;27;20040;-35
2023/05/06 00:56:42;;;;;;;9.77;8.73;;;10.20;99.90;;;;;;5147665;27;20253;-35
2023/05/06 00:59:07;;;;;;;9.68;8.55;;;10.20;99.90;;;;;;5143157;27;20039;-35
2023/05/06 01:01:36;;;;;;;10.10;8.85;;;10.20;99.90;;;;;;5152725;27;20042;-38
2023/05/06 01:04:02;;;;;;;10.18;9.18;;;10.20;99.90;;;;;;5146177;27;20062;-37
2023/05/06 01:06:44;;;;;;;9.98;8.95;;;10.10;99.90;;;;;;5147105;27;20066;-40
2023/05/06 01:09:18;;;;;;;10.90;9.52;;;10.10;99.90;;;;;;5155178;27;20038;-38
2023/05/06 01:12:31;;;;;;;12.20;10.77;;;10.10;99.90;;;;;;5143621;27;20046;-40
2023/05/06 01:15:08;;;;;;;15.18;11.15;;;10.10;99.90;;;;;;5072139;27;20043;-37
2023/05/06 01:17:38;;;;;;;12.02;10.82;;;10.10;99.90;;;;;;5168237;27;20062;-43
2023/05/06 01:20:06;;;;;;;11.55;10.07;;;10.20;99.90;;;;;;5156355;27;20490;-39
2023/05/06 01:22:36;;;;;;;8.93;8.02;;;10.20;99.90;;;;;;5151661;27;20122;-37
2023/05/06 01:25:01;;;;;;;9.30;8.50;;;10.20;99.90;;;;;;5145099;27;20046;-41
2023/05/06 01:27:27;;;;;;;8.65;7.85;;;10.20;99.90;;;;;;5144153;27;20034;-40
2023/05/06 01:29:58;;;;;;;8.00;7.32;;;10.30;99.90;;;;;;5146410;27;20522;-41
2023/05/06 01:32:33;;;;;;;8.82;8.02;;;10.30;99.90;;;;;;5144916;27;20095;-40
2023/05/06 01:35:08;;;;;;;7.97;7.28;;;10.40;99.90;;;;;;5153990;27;20106;-38
2023/05/06 01:37:51;;;;;;;8.70;7.90;;;10.30;99.90;;;;;;5151286;27;20065;-38
2023/05/06 01:40:18;;;;;;;8.57;7.78;;;10.40;99.90;;;;;;5145866;27;20050;-40
2023/05/06 01:42:48;;;;;;;8.27;7.35;;;10.40;99.90;;;;;;5148115;27;20038;-42
2023/05/06 01:45:15;;;;;;;10.18;9.18;;;10.40;99.90;;;;;;5154417;27;20359;-41
2023/05/06 01:47:41;;;;;;;9.77;8.98;;;10.30;99.90;;;;;;5143880;27;20034;-38
2023/05/06 01:50:08;;;;;;;9.80;8.80;;;10.30;99.90;;;;;;5155999;27;20455;-38
2023/05/06 01:52:33;;;;;;;8.45;7.75;;;10.30;99.90;;;;;;5148075;27;20037;-36
2023/05/06 01:54:59;;;;;;;9.35;8.48;;;10.30;99.90;;;;;;5153346;27;20403;-38
2023/05/06 01:57:25;;;;;;;9.07;8.18;;;10.20;99.90;;;;;;5151574;27;20109;-37
2023/05/06 01:59:51;;;;;;;9.00;8.27;;;10.20;99.90;;;;;;5148143;27;20121;-39
2023/05/06 02:02:18;;;;;;;9.02;8.23;;;10.20;99.90;;;;;;5147953;27;20047;-40
2023/05/06 02:04:44;;;;;;;9.40;8.50;;;10.10;99.90;;;;;;5149618;27;20074;-39
2023/05/06 02:07:10;;;;;;;11.52;10.52;;;10.10;99.90;;;;;;5151766;27;20059;-38
2023/05/06 02:09:36;;;;;;;9.35;8.40;;;10.00;99.90;;;;;;5164933;27;20039;-40
2023/05/06 02:12:01;;;;;;;8.60;7.80;;;10.00;99.90;;;;;;5151987;27;20110;-36
2023/05/06 02:14:27;;;;;;;9.88;8.98;;;9.90;99.90;;;;;;5144608;27;20475;-38
2023/05/06 02:16:54;;;;;;;10.30;9.30;;;9.90;99.90;;;;;;5144024;27;20035;-39
2023/05/06 02:19:20;;;;;;;10.52;9.43;;;9.90;99.90;;;;;;5156039;27;20035;-37
2023/05/06 02:21:45;;;;;;;10.23;9.32;;;9.80;99.90;;;;;;5150414;27;20049;-39
2023/05/06 02:24:11;;;;;;;11.25;10.13;;;9.80;99.90;;;;;;5145969;27;20035;-38
2023/05/06 02:26:37;;;;;;;10.77;9.70;;;9.80;99.90;;;;;;5147296;27;20045;-41
2023/05/06 02:29:02;;;;;;;9.23;8.30;;;9.80;99.90;;;;;;5144387;27;20039;-37
2023/05/06 02:31:28;;;;;;;21.10;8.75;;;9.80;99.90;;;;;;5145246;27;20041;-37
2023/05/06 02:33:54;;;;;;;16.20;8.55;;;9.80;99.90;;;;;;5143735;27;20042;-38
2023/05/06 02:36:19;;;;;;;8.82;8.02;;;9.80;99.90;;;;;;5154404;27;20487;-39
2023/05/06 02:38:45;;;;;;;18.45;9.40;;;9.80;99.90;;;;;;5151333;27;20030;-39
2023/05/06 02:41:11;;;;;;;10.55;8.45;;;9.80;99.90;;;;;;5138449;27;20057;-38
2023/05/06 02:43:37;;;;;;;14.20;8.52;;;9.70;99.90;;;;;;5139429;27;20043;-39
2023/05/06 02:46:03;;;;;;;9.38;8.07;;;9.70;99.90;;;;;;5171336;27;20133;-39
2023/05/06 02:48:29;;;;;;;24.70;10.07;;;9.70;99.90;;;;;;5150682;27;20121;-39
2023/05/06 02:50:55;;;;;;;11.95;8.02;;;9.70;99.90;;;;;;5140006;27;20058;-37
2023/05/06 02:53:20;;;;;;;13.30;8.68;;;9.60;99.90;;;;;;5154902;27;20123;-37
2023/05/06 02:55:46;;;;;;;8.20;7.47;;;9.60;99.90;;;;;;5150588;27;20126;-39
2023/05/06 02:58:12;;;;;;;8.70;7.78;;;9.60;99.90;;;;;;5136149;27;20147;-39
2023/05/06 03:00:38;;;;;;;9.48;8.38;;;9.60;99.90;;;;;;5146757;27;20113;-39
2023/05/06 03:03:03;;;;;;;9.77;8.88;;;9.50;99.90;;;;;;5152501;27;20128;-40
2023/05/06 03:05:29;;;;;;;10.38;9.27;;;9.50;99.90;;;;;;5138644;27;20091;-38
2023/05/06 03:07:55;;;;;;;10.15;9.15;;;9.40;99.90;;;;;;5146118;27;20073;-38
2023/05/06 03:10:20;;;;;;;12.40;10.30;;;9.40;99.90;;;;;;5151179;27;20504;-37
2023/05/06 03:12:46;;;;;;;12.90;10.90;;;9.40;99.90;;;;;;5151511;27;20372;-39
2023/05/06 03:15:12;;;;;;;10.55;9.65;;;9.40;99.90;;;;;;5139619;27;20045;-40
2023/05/06 03:17:37;;;;;;;13.57;10.10;;;9.30;99.90;;;;;;5141002;27;20077;-37
2023/05/06 03:20:05;;;;;;;10.25;9.27;;;9.40;99.90;;;;;;5149333;27;20030;-37
2023/05/06 03:22:31;;;;;;;13.27;9.75;;;9.40;99.90;;;;;;5143808;27;20034;-37
2023/05/06 03:24:57;;;;;;;10.18;9.02;;;9.40;99.90;;;;;;5144737;27;20038;-38
2023/05/06 03:27:22;;;;;;;14.93;8.07;;;9.30;99.90;;;;;;5139186;27;20054;-37
2023/05/06 03:29:48;;;;;;;31.83;9.82;;;9.30;99.90;;;;;;5145447;27;20075;-37
2023/05/06 03:32:14;;;;;;;16.35;9.48;;;9.30;99.90;;;;;;5151885;27;20042;-39
2023/05/06 03:34:39;;;;;;;31.42;10.45;;;9.30;99.90;;;;;;5142094;27;20038;-36
2023/05/06 03:37:05;;;;;;;19.92;9.75;;;9.20;99.90;;;;;;5162424;27;20522;-35
2023/05/06 03:39:31;;;;;;;29.25;10.88;;;9.20;99.90;;;;;;5147664;27;20030;-38
2023/05/06 03:41:56;;;;;;;24.98;11.02;;;9.20;99.90;;;;;;5146206;27;20039;-39
2023/05/06 03:44:22;;;;;;;70.75;14.98;;;9.10;99.90;;;;;;5145982;27;20381;-35
2023/05/06 03:46:48;;;;;;;13.43;8.43;;;9.10;99.90;;;;;;5143877;27;20034;-36
2023/05/06 03:49:14;;;;;;;28.25;10.32;;;9.00;99.90;;;;;;5146064;27;20027;-35
2023/05/06 03:51:40;;;;;;;12.15;8.32;;;9.00;99.90;;;;;;5150004;27;20026;-36
2023/05/06 03:54:06;;;;;;;11.15;8.80;;;9.00;99.90;;;;;;5152826;27;20038;-35
2023/05/06 03:56:31;;;;;;;17.27;8.70;;;9.00;99.90;;;;;;5138513;27;20372;-38
2023/05/06 03:58:57;;;;;;;29.25;10.02;;;9.00;99.90;;;;;;5135745;27;20099;-35
2023/05/06 04:01:23;;;;;;;23.60;9.63;;;9.00;99.90;;;;;;5146552;27;20034;-36
2023/05/06 04:03:48;;;;;;;68.90;12.48;;;9.00;99.90;;;;;;5142781;27;20030;-34
2023/05/06 04:06:14;;;;;;;20.42;8.55;;;9.00;99.90;;;;;;5149078;27;20556;-37
2023/05/06 04:08:40;;;;;;;10.32;7.68;;;9.00;99.90;;;;;;5137599;27;20039;-34
2023/05/06 04:11:07;;;;;;;8.10;7.35;;;9.00;99.90;;;;;;5151716;27;20034;-37
2023/05/06 04:13:33;;;;;;;12.95;8.02;;;8.90;99.90;;;;;;5145160;27;20026;-35
2023/05/06 04:16:00;;;;;;;19.25;8.20;;;8.90;99.90;;;;;;5150299;27;20126;-37
2023/05/06 04:18:26;;;;;;;30.80;9.75;;;8.90;99.90;;;;;;5137892;27;20041;-35
2023/05/06 04:20:51;;;;;;;28.23;8.75;;;8.90;99.90;;;;;;5145742;27;20034;-34
2023/05/06 04:23:17;;;;;;;18.83;8.38;;;8.90;99.90;;;;;;5150167;27;20090;-38
2023/05/06 04:25:47;;;;;;;16.75;8.48;;;8.90;99.90;;;;;;5137586;27;20123;-34
2023/05/06 04:28:17;;;;;;;45.65;10.45;;;8.90;99.90;;;;;;5148836;27;20029;-38
2023/05/06 04:30:44;;;;;;;27.85;9.43;;;8.90;99.90;;;;;;5146725;27;20038;-35
2023/05/06 04:33:10;;;;;;;36.53;9.73;;;8.90;99.90;;;;;;5150321;27;20038;-39
2023/05/06 04:35:36;;;;;;;52.00;12.10;;;9.00;99.90;;;;;;5136768;27;20519;-38
2023/05/06 04:38:02;;;;;;;27.90;9.65;;;9.00;99.90;;;;;;5147098;27;20030;-38
2023/05/06 04:40:28;;;;;;;31.38;10.10;;;9.00;99.90;;;;;;5144658;27;20046;-37
2023/05/06 04:42:55;;;;;;;12.45;8.48;;;9.00;99.90;;;;;;5146338;27;20483;-38
2023/05/06 04:45:24;;;;;;;24.65;9.70;;;9.00;99.90;;;;;;5152927;27;20066;-40
2023/05/06 04:47:51;;;;;;;28.40;10.32;;;9.00;99.90;;;;;;5154754;27;20050;-38
2023/05/06 04:50:16;;;;;;;9.70;8.02;;;9.00;99.90;;;;;;5142855;27;20031;-41
2023/05/06 04:52:42;;;;;;;14.32;8.00;;;9.10;99.90;;;;;;5137025;27;20045;-37
2023/05/06 04:55:09;;;;;;;14.32;8.82;;;9.10;99.90;;;;;;5142869;27;20041;-38
2023/05/06 04:57:35;;;;;;;16.08;9.40;;;9.10;99.90;;;;;;5147083;27;20117;-37
2023/05/06 05:00:01;;;;;;;12.68;9.07;;;9.20;99.90;;;;;;5152599;27;20117;-40
2023/05/06 05:02:27;;;;;;;10.18;8.52;;;9.20;99.90;;;;;;5150453;27;20035;-39
2023/05/06 05:04:53;;;;;;;17.85;9.52;;;9.30;99.90;;;;;;5145024;27;20547;-43
2023/05/06 05:07:18;;;;;;;17.70;9.60;;;9.40;99.90;;;;;;5151836;27;20030;-39
2023/05/06 05:09:44;;;;;;;11.88;9.90;;;9.50;99.90;;;;;;5152185;27;20034;-37
2023/05/06 05:12:10;;;;;;;10.73;9.75;;;9.50;99.90;;;;;;5150458;27;20559;-36
2023/05/06 05:14:35;;;;;;;9.98;9.18;;;9.60;99.90;;;;;;5146534;27;20057;-38
2023/05/06 05:17:01;;;;;;;10.13;9.32;;;9.70;99.90;;;;;;5139130;27;20042;-40
2023/05/06 05:19:27;;;;;;;10.55;9.65;;;9.70;99.90;;;;;;5144871;27;20062;-37
2023/05/06 05:21:53;;;;;;;11.32;10.32;;;9.70;99.90;;;;;;5148891;27;20049;-38
2023/05/06 05:24:19;;;;;;;12.55;11.48;;;9.80;99.90;;;;;;5149521;27;20104;-38
2023/05/06 05:26:45;;;;;;;17.02;14.27;;;9.80;99.90;;;;;;5146502;27;20117;-36
2023/05/06 05:29:10;;;;;;;20.10;14.43;;;9.90;99.90;;;;;;5151922;27;20183;-37
2023/05/06 05:31:36;;;;;;;19.17;14.77;;;10.00;99.90;;;;;;5147181;27;20031;-35
2023/05/06 05:34:02;;;;;;;26.35;15.23;;;10.00;99.90;;;;;;5153596;27;20116;-35
2023/05/06 05:36:28;;;;;;;14.77;13.15;;;10.10;99.90;;;;;;5153324;27;20038;-39
2023/05/06 05:38:54;;;;;;;16.77;15.00;;;10.20;99.90;;;;;;5148270;27;20086;-35
2023/05/06 05:41:19;;;;;;;15.93;14.15;;;10.20;99.90;;;;;;5150742;27;20045;-37
2023/05/06 05:43:45;;;;;;;16.08;14.48;;;10.30;99.90;;;;;;5145530;27;20077;-35
2023/05/06 05:46:11;;;;;;;15.52;14.02;;;10.40;99.90;;;;;;5153053;27;20114;-39
2023/05/06 05:48:38;;;;;;;15.07;13.68;;;10.50;99.90;;;;;;5154123;27;20030;-35
2023/05/06 05:51:04;;;;;;;17.00;15.27;;;10.50;99.90;;;;;;5154088;27;20314;-38
2023/05/06 05:53:30;;;;;;;17.83;16.05;;;10.60;99.90;;;;;;5153447;27;20055;-35
2023/05/06 05:55:56;;;;;;;16.15;14.55;;;10.60;99.90;;;;;;5152651;27;20600;-37
2023/05/06 05:58:22;;;;;;;15.98;14.38;;;10.60;99.90;;;;;;5149781;27;20039;-36
2023/05/06 06:00:48;;;;;;;15.30;13.85;;;10.60;99.90;;;;;;5149676;27;20098;-35
2023/05/06 06:03:14;;;;;;;15.80;14.30;;;10.70;99.90;;;;;;5149228;27;20082;-36
2023/05/06 06:05:40;;;;;;;14.52;13.15;;;10.80;99.90;;;;;;5148846;27;20038;-37
2023/05/06 06:08:05;;;;;;;17.50;15.80;;;10.90;99.90;;;;;;5146342;27;20579;-36
2023/05/06 06:10:31;;;;;;;21.35;19.13;;;10.90;99.90;;;;;;5151206;27;20110;-37
2023/05/06 06:12:57;;;;;;;18.20;16.33;;;11.00;99.90;;;;;;5143008;27;20042;-40
2023/05/06 06:15:22;;;;;;;25.90;22.10;;;11.10;99.90;;;;;;5152920;27;20505;-35
2023/05/06 06:17:48;;;;;;;25.05;21.25;;;11.10;99.90;;;;;;5141954;27;20312;-35
2023/05/06 06:20:15;;;;;;;23.73;21.15;;;11.30;99.90;;;;;;5150847;27;20070;-38
2023/05/06 06:22:40;;;;;;;21.88;19.33;;;11.40;99.90;;;;;;5169613;27;20038;-38
2023/05/06 06:25:09;;;;;;;26.85;21.77;;;11.60;99.90;;;;;;5153768;27;20049;-35
2023/05/06 06:27:38;;;;;;;31.05;24.42;;;11.70;99.90;;;;;;5145562;27;20061;-38
2023/05/06 06:30:04;;;;;;;27.55;22.15;;;11.90;99.90;;;;;;5155805;27;20428;-38
2023/05/06 06:32:30;;;;;;;29.92;23.88;;;12.10;99.90;;;;;;5165463;27;20106;-37
2023/05/06 06:34:55;;;;;;;28.77;22.48;;;12.30;99.90;;;;;;5145076;27;20038;-39
2023/05/06 06:37:21;;;;;;;28.42;21.52;;;12.50;99.90;;;;;;5155601;27;20042;-40
2023/05/06 06:39:47;;;;;;;30.27;23.48;;;12.70;99.90;;;;;;5172114;27;20057;-36
2023/05/06 06:42:13;;;;;;;29.27;21.48;;;12.90;99.90;;;;;;5150395;27;20034;-36
2023/05/06 06:44:38;;;;;;;29.58;22.55;;;13.10;99.90;;;;;;5142844;27;20039;-39
2023/05/06 06:47:04;;;;;;;32.15;22.25;;;13.30;99.90;;;;;;5126745;27;20030;-35
2023/05/06 06:49:30;;;;;;;30.25;22.75;;;13.50;99.90;;;;;;5148301;27;20034;-39
2023/05/06 06:51:56;;;;;;;40.65;24.38;;;13.70;99.90;;;;;;5154846;27;20465;-37
2023/05/06 06:54:23;;;;;;;34.05;22.75;;;13.90;99.90;;;;;;5146641;27;20146;-37
2023/05/06 06:56:52;;;;;;;34.60;21.83;;;14.00;99.90;;;;;;5152359;27;20082;-38
2023/05/06 06:59:17;;;;;;;32.28;22.50;;;14.00;99.90;;;;;;5146226;27;20483;-39
2023/05/06 07:01:43;;;;;;;35.53;22.25;;;14.10;99.90;;;;;;5146879;27;20335;-36
2023/05/06 07:04:09;;;;;;;30.77;21.17;;;14.20;99.90;;;;;;5147379;27;20113;-36
2023/05/06 07:06:35;;;;;;;28.33;20.75;;;14.30;99.90;;;;;;5143741;27;20066;-36
2023/05/06 07:09:01;;;;;;;30.63;21.08;;;14.30;99.90;;;;;;5151081;27;20068;-39
2023/05/06 07:11:26;;;;;;;29.77;22.30;;;14.40;99.90;;;;;;5150727;27;20458;-38
2023/05/06 07:13:52;;;;;;;27.65;19.95;;;14.40;99.90;;;;;;5148244;27;20034;-39
2023/05/06 07:16:18;;;;;;;27.83;19.48;;;14.40;99.90;;;;;;5150235;27;20157;-38
2023/05/06 07:18:44;;;;;;;28.85;19.92;;;14.40;99.90;;;;;;5147873;27;20031;-36
2023/05/06 07:21:09;;;;;;;29.60;21.25;;;14.50;99.90;;;;;;5146150;27;20042;-39
2023/05/06 07:23:35;;;;;;;24.48;19.98;;;14.40;99.90;;;;;;5148104;27;20302;-36
2023/05/06 07:26:01;;;;;;;29.42;21.60;;;14.50;99.90;;;;;;5146146;27;20030;-38
2023/05/06 07:28:26;;;;;;;30.00;22.77;;;14.70;99.90;;;;;;5145896;27;20063;-36
2023/05/06 07:30:52;;;;;;;29.45;23.65;;;14.90;99.90;;;;;;5143636;27;20019;-35
2023/05/06 07:33:18;;;;;;;30.25;22.42;;;15.10;99.90;;;;;;5143581;27;20030;-38
2023/05/06 07:35:44;;;;;;;31.95;22.85;;;15.20;99.90;;;;;;5168892;27;20038;-39
2023/05/06 07:38:10;;;;;;;30.33;22.33;;;15.30;99.90;;;;;;5146013;27;20090;-36
2023/05/06 07:40:36;;;;;;;29.30;22.42;;;15.40;99.90;;;;;;5145163;27;20039;-39
2023/05/06 07:43:02;;;;;;;30.92;22.85;;;15.50;99.90;;;;;;5139710;27;20041;-36
2023/05/06 07:45:28;;;;;;;31.10;22.77;;;15.50;99.90;;;;;;5157644;27;20045;-42
2023/05/06 07:47:54;;;;;;;32.00;24.20;;;15.50;99.90;;;;;;5146983;27;20043;-38
2023/05/06 07:50:19;;;;;;;32.53;24.05;;;15.70;99.90;;;;;;5152488;27;20423;-41
2023/05/06 07:52:45;;;;;;;35.53;24.73;;;15.80;99.90;;;;;;5148757;27;20449;-38
2023/05/06 07:55:11;;;;;;;30.67;23.70;;;16.00;99.90;;;;;;5139534;27;20727;-36
2023/05/06 07:57:37;;;;;;;29.10;22.00;;;16.40;99.90;;;;;;5132530;27;20031;-36
2023/05/06 08:00:03;;;;;;;32.65;23.95;;;16.70;99.90;;;;;;5147365;27;20062;-38
2023/05/06 08:02:30;;;;;;;34.00;24.25;;;16.90;99.90;;;;;;5147922;27;20035;-38
2023/05/06 08:04:55;;;;;;;30.52;24.13;;;17.10;99.90;;;;;;5142684;27;20074;-38
2023/05/06 08:07:21;;;;;;;29.98;23.88;;;17.30;99.90;;;;;;5146056;27;20058;-36
2023/05/06 08:09:47;;;;;;;29.17;21.35;;;17.50;99.90;;;;;;5156264;27;20046;-40
2023/05/06 08:12:14;;;;;;;28.88;20.15;;;17.60;99.90;;;;;;5156137;27;20038;-37
2023/05/06 08:14:40;;;;;;;27.30;20.98;;;17.60;99.90;;;;;;5158783;27;20042;-40
2023/05/06 08:17:05;;;;;;;27.50;20.65;;;17.60;99.90;;;;;;5144258;27;20099;-38
2023/05/06 08:19:31;;;;;;;27.48;21.23;;;17.80;99.90;;;;;;5151749;27;20067;-35
2023/05/06 08:21:57;;;;;;;29.52;22.17;;;18.00;99.90;;;;;;5148300;27;20030;-37
2023/05/06 08:24:23;;;;;;;28.50;21.15;;;18.00;99.90;;;;;;5145441;27;20035;-38
2023/05/06 08:26:48;;;;;;;29.80;23.05;;;18.00;99.90;;;;;;5166324;27;20080;-39
2023/05/06 08:29:14;;;;;;;29.83;22.42;;;18.00;99.90;;;;;;5144146;27;20405;-38
2023/05/06 08:31:40;;;;;;;32.38;23.48;;;18.10;99.90;;;;;;5138890;27;20038;-36
2023/05/06 08:34:06;;;;;;;28.13;21.80;;;18.10;99.90;;;;;;5143644;27;20480;-38
2023/05/06 08:36:31;;;;;;;30.90;22.55;;;18.10;99.90;;;;;;5150213;27;20041;-40
2023/05/06 08:38:57;;;;;;;28.45;20.60;;;18.30;99.90;;;;;;5153230;27;20042;-38
2023/05/06 08:41:25;;;;;;;30.90;22.20;;;18.40;99.90;;;;;;5147430;27;20034;-42
2023/05/06 08:43:53;;;;;;;29.50;21.92;;;18.60;99.90;;;;;;5152979;27;20034;-37
2023/05/06 08:46:19;;;;;;;30.92;22.13;;;18.60;99.90;;;;;;5146503;27;20052;-39
2023/05/06 08:48:45;;;;;;;31.77;22.85;;;18.60;99.90;;;;;;5144926;27;20117;-38
2023/05/06 08:51:13;;;;;;;31.25;21.63;;;18.60;99.90;;;;;;5147015;27;20540;-37
2023/05/06 08:53:46;;;;;;;31.17;20.92;;;18.80;99.90;;;;;;5145272;27;20091;-39
2023/05/06 08:56:14;;;;;;;30.33;20.83;;;19.00;99.90;;;;;;5142265;27;20074;-39
2023/05/06 08:58:45;;;;;;;27.73;20.77;;;19.20;99.90;;;;;;5154749;27;20113;-38
2023/05/06 09:01:11;;;;;;;28.80;21.83;;;19.50;99.90;;;;;;5155200;27;20038;-39
2023/05/06 09:03:36;;;;;;;27.60;20.13;;;19.80;99.90;;;;;;5144925;27;20037;-40
2023/05/06 09:06:02;;;;;;;29.45;21.50;;;20.00;99.90;;;;;;5140151;27;20057;-37
2023/05/06 09:08:28;;;;;;;29.42;21.33;;;20.00;99.90;;;;;;5144958;27;20030;-40
2023/05/06 09:10:53;;;;;;;30.40;19.98;;;20.30;99.90;;;;;;5172195;27;20034;-39
2023/05/06 09:13:19;;;;;;;27.25;18.50;;;20.30;99.90;;;;;;5172684;27;20094;-37
2023/05/06 09:15:46;;;;;;;26.73;18.10;;;20.30;99.90;;;;;;5144269;27;20049;-39
2023/05/06 09:18:13;;;;;;;24.52;18.55;;;20.50;99.90;;;;;;5152229;27;20034;-37
2023/05/06 09:20:44;;;;;;;23.45;18.20;;;20.80;99.90;;;;;;5143935;27;20122;-36
2023/05/06 09:23:11;;;;;;;18.60;14.70;;;21.10;99.90;;;;;;5154327;27;20042;-39
2023/05/06 09:25:38;;;;;;;17.92;15.88;;;21.50;99.90;;;;;;5153106;27;20043;-40
2023/05/06 09:28:09;;;;;;;12.30;10.88;;;21.20;99.90;;;;;;5146153;27;20093;-36
2023/05/06 09:30:43;;;;;;;14.45;12.00;;;21.40;99.90;;;;;;5142488;27;20035;-36
2023/05/06 09:33:10;;;;;;;12.45;10.43;;;21.30;99.90;;;;;;5145091;27;20538;-37
2023/05/06 09:35:38;;;;;;;12.43;10.05;;;21.60;99.90;;;;;;5145105;27;20122;-36
2023/05/06 09:38:05;;;;;;;11.32;9.77;;;21.90;99.90;;;;;;5153301;27;20034;-40
2023/05/06 09:40:31;;;;;;;10.43;9.32;;;22.00;99.90;;;;;;5142469;27;20038;-40
2023/05/06 09:42:56;;;;;;;12.93;10.57;;;22.00;99.90;;;;;;5147610;27;20038;-40
2023/05/06 09:45:23;;;;;;;12.25;10.50;;;21.90;99.90;;;;;;5147991;27;20094;-39
2023/05/06 09:47:52;;;;;;;13.30;11.10;;;21.70;99.90;;;;;;5149081;27;20090;-41
2023/05/06 09:50:20;;;;;;;13.20;10.90;;;21.70;99.90;;;;;;5150645;27;20058;-37
2023/05/06 09:52:47;;;;;;;14.82;12.75;;;21.90;99.90;;;;;;5141821;27;20542;-40
2023/05/06 09:55:13;;;;;;;14.27;12.65;;;22.30;99.90;;;;;;5146401;27;20039;-37
2023/05/06 09:57:40;;;;;;;14.23;12.40;;;22.40;99.90;;;;;;5149708;27;20041;-40
2023/05/06 10:00:10;;;;;;;13.98;12.23;;;22.20;99.90;;;;;;5151847;27;20594;-38
2023/05/06 10:02:39;;;;;;;12.93;11.50;;;22.00;99.90;;;;;;5153594;27;20045;-37
2023/05/06 10:05:05;;;;;;;14.30;12.80;;;21.80;99.90;;;;;;5168694;27;20042;-36
2023/05/06 10:07:31;;;;;;;14.15;12.65;;;21.50;99.90;;;;;;5144720;27;20104;-37
2023/05/06 10:09:59;;;;;;;12.98;11.25;;;21.30;99.90;;;;;;5144762;27;20077;-37
2023/05/06 10:12:25;;;;;;;11.20;9.45;;;21.30;99.90;;;;;;5150063;27;20027;-39
2023/05/06 10:14:50;;;;;;;9.63;7.63;;;21.70;99.90;;;;;;5150833;27;20038;-36
2023/05/06 10:17:17;;;;;;;8.95;7.45;;;22.10;99.90;;;;;;5151530;27;20411;-37
2023/05/06 10:19:45;;;;;;;8.82;6.97;;;22.40;99.90;;;;;;5143154;27;20038;-37
2023/05/06 10:22:32;;;;;;;8.60;7.13;;;22.30;99.90;;;;;;5147200;27;20491;-36
2023/05/06 10:25:02;;;;;;;8.63;7.70;;;22.60;99.90;;;;;;5148300;27;20069;-38
2023/05/06 10:27:31;;;;;;;8.00;7.20;;;22.60;99.90;;;;;;5151035;27;20045;-36
2023/05/06 10:29:59;;;;;;;12.20;8.55;;;22.80;99.90;;;;;;5143139;27;20113;-37
2023/05/06 10:32:29;;;;;;;8.68;7.82;;;23.00;99.90;;;;;;5149962;27;20037;-40
2023/05/06 10:35:00;;;;;;;11.57;8.50;;;23.30;99.90;;;;;;5148560;27;20102;-37
2023/05/06 10:37:27;;;;;;;10.85;9.27;;;23.70;99.90;;;;;;5145235;27;20035;-37
2023/05/06 10:39:55;;;;;;;12.10;8.52;;;23.50;99.90;;;;;;5145320;27;20045;-37
2023/05/06 10:42:27;;;;;;;10.43;9.43;;;23.10;99.90;;;;;;5139395;27;20509;-38
2023/05/06 10:44:57;;;;;;;10.10;9.07;;;23.40;99.90;;;;;;5155556;27;20501;-37
2023/05/06 10:47:23;;;;;;;9.32;8.43;;;23.30;99.90;;;;;;5154704;27;20399;-36
2023/05/06 10:50:25;;;;;;;12.25;9.52;;;23.40;99.90;;;;;;5145007;27;20038;-38
2023/05/06 10:52:54;;;;;;;11.73;10.52;;;23.30;99.90;;;;;;5116174;27;20040;-42
2023/05/06 10:55:27;;;;;;;11.25;10.15;;;23.30;99.90;;;;;;5139204;27;20110;-38
2023/05/06 10:57:55;;;;;;;11.60;10.32;;;23.10;99.90;;;;;;5147703;27;20451;-38
2023/05/06 11:00:21;;;;;;;9.32;8.23;;;22.80;99.90;;;;;;5149634;27;20125;-40
2023/05/06 11:02:55;;;;;;;10.52;9.13;;;23.00;99.90;;;;;;5152148;27;20113;-38
2023/05/06 11:05:22;;;;;;;10.02;9.02;;;23.40;99.90;;;;;;5147050;27;20078;-37
2023/05/06 11:07:54;;;;;;;11.20;10.10;;;23.70;99.90;;;;;;5153564;27;20392;-37
2023/05/06 11:10:33;;;;;;;11.57;10.48;;;23.50;99.90;;;;;;5144209;27;20066;-36
2023/05/06 11:13:18;;;;;;;10.70;9.65;;;23.30;99.90;;;;;;5140694;27;20185;-37
2023/05/06 11:15:45;;;;;;;12.23;11.00;;;22.80;99.90;;;;;;5142679;27;20562;-39
2023/05/06 11:18:26;;;;;;;11.40;10.30;;;23.20;99.90;;;;;;5143596;27;20041;-38
2023/05/06 11:21:13;;;;;;;13.15;11.25;;;24.20;99.90;;;;;;5154931;27;20411;-38
2023/05/06 11:23:42;;;;;;;13.05;11.80;;;24.20;90.40;;;;;;5142189;27;20469;-41
2023/05/06 11:26:09;;;;;;;12.98;11.65;;;24.10;99.90;;;;;;5150196;27;20041;-40
2023/05/06 11:28:35;;;;;;;12.55;10.75;;;24.00;99.90;;;;;;5146576;27;20059;-38
2023/05/06 11:31:01;;;;;;;12.98;11.63;;;24.20;99.90;;;;;;5152475;27;20371;-43
2023/05/06 11:33:32;;;;;;;12.25;10.23;;;23.90;99.90;;;;;;5146578;27;20030;-37
2023/05/06 11:35:59;;;;;;;12.95;11.43;;;24.80;99.90;;;;;;5139535;27;20035;-38
2023/05/06 11:38:25;;;;;;;12.68;11.48;;;25.00;99.90;;;;;;5149040;27;20078;-38
2023/05/06 11:40:51;;;;;;;13.52;12.20;;;25.60;99.90;;;;;;5148883;27;20117;-37
2023/05/06 11:43:17;;;;;;;13.90;12.50;;;25.70;96.50;;;;;;5145692;27;20647;-37
2023/05/06 11:45:45;;;;;;;12.73;11.40;;;26.20;93.20;;;;;;5151175;27;20422;-40
2023/05/06 11:48:12;;;;;;;14.82;13.38;;;25.70;93.00;;;;;;5171134;27;20098;-37
2023/05/06 11:50:42;;;;;;;12.57;11.38;;;25.80;86.10;;;;;;5149194;27;20125;-41
2023/05/06 11:53:08;;;;;;;13.18;11.82;;;25.90;91.90;;;;;;5144639;27;20035;-39
2023/05/06 11:55:34;;;;;;;11.15;9.82;;;25.40;88.80;;;;;;5147558;27;20034;-38
2023/05/06 11:58:00;;;;;;;11.27;10.07;;;25.70;82.90;;;;;;5153078;27;20046;-39
2023/05/06 12:00:26;;;;;;;13.43;12.02;;;26.10;82.90;;;;;;5139617;27;20042;-38
2023/05/06 12:02:56;;;;;;;12.63;11.38;;;25.70;79.20;;;;;;5123505;27;20533;-40
2023/05/06 12:05:22;;;;;;;14.70;13.30;;;25.40;80.10;;;;;;5151183;27;20031;-37
2023/05/06 12:07:49;;;;;;;14.48;13.13;;;25.10;82.00;;;;;;5153208;27;20092;-37
2023/05/06 12:10:16;;;;;;;17.67;13.15;;;24.50;83.60;;;;;;5149764;27;20506;-39
2023/05/06 12:12:42;;;;;;;13.38;12.27;;;24.40;86.70;;;;;;5149772;27;20038;-38
2023/05/06 12:15:09;;;;;;;13.80;12.70;;;23.50;92.30;;;;;;5147677;27;20103;-38
2023/05/06 12:17:35;;;;;;;15.00;13.70;;;23.10;98.50;;;;;;5149829;27;20076;-36
2023/05/06 12:20:02;;;;;;;15.60;14.20;;;23.10;99.90;;;;;;5144586;27;20034;-37
2023/05/06 12:22:28;;;;;;;14.38;12.98;;;22.50;99.90;;;;;;5147807;27;20094;-42
2023/05/06 12:24:54;;;;;;;14.52;13.15;;;22.20;99.90;;;;;;5135482;27;20043;-38
2023/05/06 12:27:33;;;;;;;14.50;13.10;;;22.30;99.90;;;;;;5145788;27;20035;-36
2023/05/06 12:30:00;;;;;;;14.70;13.40;;;22.10;99.90;;;;;;5153051;27;20038;-38
2023/05/06 12:32:26;;;;;;;14.57;13.15;;;21.90;99.90;;;;;;5155764;27;20483;-38
2023/05/06 12:34:55;;;;;;;13.50;12.30;;;21.80;99.90;;;;;;5154223;27;20041;-37